Time;durP1;ratioP1;P1;durP2;ratioP2;P2;SDS_P1;SDS_P2;PMS_P1;PMS_P2;Temp;Humidity;BMP_temperature;BMP_pressure;BME280_temperature;BME280_humidity;BME280_pressure;Samples;Min_cycle;Max_cycle;Signal;HPM_P1;HPM_P2
2021/12/05 00:23:41;;;;;;;46.60;16.23;;;;;;;3.97;100.00;99682.28;5052784;28;20044;-79
2021/12/05 00:26:13;;;;;;;33.80;13.88;;;;;;;3.97;100.00;99679.66;5073838;28;20040;-80
2021/12/05 00:56:19;;;;;;;43.83;17.25;;;;;;;4.00;100.00;99694.47;5025264;28;20053;-81
2021/12/05 01:17:26;;;;;;;50.03;19.70;;;;;;;3.96;100.00;99697.88;5039827;28;20048;-79
2021/12/05 01:19:57;;;;;;;50.65;18.17;;;;;;;3.96;100.00;99698.75;5026862;28;20044;-79
2021/12/05 01:22:30;;;;;;;67.72;20.92;;;;;;;3.96;100.00;99700.50;5050173;28;20222;-79
2021/12/05 01:25:31;;;;;;;53.40;18.08;;;;;;;3.96;100.00;99708.31;5071993;28;20045;-80
2021/12/05 01:33:21;;;;;;;47.00;18.13;;;;;;;3.96;100.00;99717.00;5033330;28;20036;-79
2021/12/05 01:50:03;;;;;;;38.67;16.85;;;;;;;3.94;100.00;99728.28;5023914;28;20914;-81
2021/12/05 01:52:54;;;;;;;40.35;17.42;;;;;;;3.93;100.00;99731.72;5040488;28;20166;-81
2021/12/05 02:31:34;;;;;;;38.65;16.20;;;;;;;3.85;100.00;99752.47;5029655;28;20485;-77
2021/12/05 02:34:52;;;;;;;34.17;14.68;;;;;;;3.84;100.00;99754.22;5032466;28;20045;-77
2021/12/05 02:37:15;;;;;;;41.00;15.88;;;;;;;3.83;100.00;99746.38;5035266;28;20060;-77
2021/12/05 02:39:53;;;;;;;40.00;15.90;;;;;;;3.82;100.00;99755.03;5054572;28;20047;-77
2021/12/05 02:42:35;;;;;;;32.47;15.20;;;;;;;3.80;100.00;99752.44;5044934;28;20353;-77
2021/12/05 02:45:07;;;;;;;31.05;13.85;;;;;;;3.79;100.00;99753.28;5056711;28;20044;-77
2021/12/05 02:47:37;;;;;;;37.88;15.55;;;;;;;3.79;100.00;99745.47;4996847;28;20184;-77
2021/12/05 02:50:09;;;;;;;32.20;14.32;;;;;;;3.78;100.00;99745.44;5039681;28;20037;-77
2021/12/05 02:52:40;;;;;;;40.28;14.65;;;;;;;3.77;100.00;99741.97;5035610;28;20316;-77
2021/12/05 02:55:15;;;;;;;29.75;13.85;;;;;;;3.75;100.00;99741.06;5048563;28;20028;-77
2021/12/05 03:00:21;;;;;;;26.10;13.02;;;;;;;3.71;100.00;99741.88;5050710;28;20040;-77
2021/12/05 03:02:53;;;;;;;27.17;12.43;;;;;;;3.68;100.00;99739.22;5061240;28;20041;-77
2021/12/05 03:05:23;;;;;;;31.02;13.57;;;;;;;3.67;100.00;99742.72;5008859;28;20056;-77
2021/12/05 03:07:58;;;;;;;26.83;12.68;;;;;;;3.65;100.00;99747.03;5045864;28;20041;-77
2021/12/05 03:10:29;;;;;;;19.77;11.70;;;;;;;3.64;100.00;99751.34;5013845;28;20057;-77
2021/12/05 03:12:58;;;;;;;22.95;11.77;;;;;;;3.64;100.00;99753.94;5034124;28;20044;-77
2021/12/05 03:15:29;;;;;;;28.13;13.20;;;;;;;3.63;100.00;99756.53;5056044;28;20576;-77
2021/12/05 03:17:58;;;;;;;20.73;11.25;;;;;;;3.62;100.00;99755.66;5036882;28;20607;-77
2021/12/05 03:20:27;;;;;;;18.98;10.50;;;;;;;3.61;100.00;99755.63;4992561;28;20067;-77
2021/12/05 03:22:55;;;;;;;26.77;12.68;;;;;;;3.61;100.00;99758.22;5046128;28;20044;-77
2021/12/05 03:25:25;;;;;;;19.98;11.88;;;;;;;3.62;100.00;99755.66;5015781;28;20059;-77
2021/12/05 03:27:54;;;;;;;18.60;11.40;;;;;;;3.62;100.00;99763.47;5037265;28;20045;-77
2021/12/05 03:30:25;;;;;;;20.95;12.18;;;;;;;3.62;100.00;99755.66;5023034;28;20272;-77
2021/12/05 03:32:55;;;;;;;22.73;11.80;;;;;;;3.63;100.00;99759.13;5060087;28;20048;-77
2021/12/05 03:35:27;;;;;;;27.05;12.00;;;;;;;3.64;100.00;99763.50;5011567;28;20060;-77
2021/12/05 03:37:59;;;;;;;22.15;11.75;;;;;;;3.64;100.00;99760.91;5072572;28;20045;-77
2021/12/05 03:40:31;;;;;;;25.85;12.43;;;;;;;3.63;100.00;99757.44;5030074;28;20183;-76
2021/12/05 03:43:07;;;;;;;26.85;12.77;;;;;;;3.64;100.00;99766.97;5053181;28;20519;-78
2021/12/05 03:45:41;;;;;;;21.95;12.30;;;;;;;3.64;100.00;99761.75;5039298;28;20072;-77
2021/12/05 03:48:13;;;;;;;21.30;11.93;;;;;;;3.64;100.00;99758.28;5037895;28;20072;-76
2021/12/05 03:50:43;;;;;;;25.20;12.25;;;;;;;3.63;100.00;99764.34;4983567;28;20040;-77
2021/12/05 03:53:16;;;;;;;21.75;10.40;;;;;;;3.61;100.00;99761.75;5030452;28;20040;-78
2021/12/05 03:55:49;;;;;;;20.20;11.25;;;;;;;3.61;100.00;99768.66;5047548;28;20045;-77
2021/12/05 03:58:20;;;;;;;22.70;10.98;;;;;;;3.60;100.00;99764.31;5054235;28;20513;-77
2021/12/05 04:00:52;;;;;;;23.17;11.32;;;;;;;3.60;100.00;99761.72;5038045;28;20041;-76
2021/12/05 04:03:24;;;;;;;20.48;10.32;;;;;;;3.60;100.00;99770.41;5024194;28;20265;-77
2021/12/05 04:05:55;;;;;;;17.00;10.93;;;;;;;3.60;100.00;99772.13;5003524;28;20052;-77
2021/12/05 04:08:26;;;;;;;21.60;10.77;;;;;;;3.60;100.00;99769.53;5061575;28;20043;-77
2021/12/05 04:10:59;;;;;;;21.80;10.48;;;;;;;3.60;100.00;99777.34;5044937;28;20059;-76
2021/12/05 04:13:30;;;;;;;23.38;10.23;;;;;;;3.60;100.00;99780.81;5037177;28;20063;-76
2021/12/05 04:16:01;;;;;;;20.52;11.00;;;;;;;3.59;100.00;99779.09;5021510;28;20041;-76
2021/12/05 04:18:29;;;;;;;21.20;11.13;;;;;;;3.59;100.00;99778.19;5060684;28;20573;-78
2021/12/05 04:21:01;;;;;;;18.83;11.82;;;;;;;3.59;100.00;99775.56;5018151;28;20068;-76
2021/12/05 04:23:31;;;;;;;18.77;10.30;;;;;;;3.59;100.00;99779.09;5050043;28;20675;-77
2021/12/05 04:26:00;;;;;;;19.55;11.43;;;;;;;3.60;100.00;99780.81;5025856;28;20051;-77
2021/12/05 04:28:29;;;;;;;22.20;10.68;;;;;;;3.60;100.00;99778.22;5063523;28;20045;-78
2021/12/05 04:31:00;;;;;;;22.23;10.88;;;;;;;3.60;100.00;99786.03;5023028;28;20044;-77
2021/12/05 04:33:30;;;;;;;21.13;12.10;;;;;;;3.61;100.00;99786.88;5039908;28;20139;-77
2021/12/05 04:36:00;;;;;;;19.37;10.83;;;;;;;3.61;100.00;99789.50;5029220;28;20040;-77
2021/12/05 04:38:29;;;;;;;20.52;10.48;;;;;;;3.61;100.00;99792.09;4994801;28;20037;-77
2021/12/05 04:40:59;;;;;;;23.08;11.55;;;;;;;3.60;100.00;99780.81;5049106;28;20402;-77
2021/12/05 04:43:35;;;;;;;21.15;10.70;;;;;;;3.62;100.00;99788.66;5056335;28;20639;-77
2021/12/05 04:46:12;;;;;;;26.30;11.95;;;;;;;3.60;100.00;99788.63;5059109;28;20527;-76
2021/12/05 04:48:43;;;;;;;25.63;11.93;;;;;;;3.61;100.00;99786.88;5045813;28;20043;-76
2021/12/05 04:51:17;;;;;;;17.70;11.30;;;;;;;3.62;100.00;99799.94;5052762;28;20063;-76
2021/12/05 04:53:46;;;;;;;25.25;12.63;;;;;;;3.62;100.00;99799.94;5007377;28;20039;-77
2021/12/05 04:56:18;;;;;;;24.02;11.50;;;;;;;3.61;100.00;99805.13;5037145;28;20037;-76
2021/12/05 04:58:46;;;;;;;21.67;11.85;;;;;;;3.61;100.00;99805.13;5047830;28;20540;-78
2021/12/05 05:01:22;;;;;;;20.67;11.20;;;;;;;3.62;100.00;99801.69;5033722;28;20269;-78
2021/12/05 05:03:52;;;;;;;22.95;12.52;;;;;;;3.62;100.00;99810.38;5037662;28;20041;-77
2021/12/05 05:06:22;;;;;;;27.98;12.32;;;;;;;3.62;100.00;99810.38;5041328;28;20554;-77
2021/12/05 05:08:54;;;;;;;21.57;11.70;;;;;;;3.65;100.00;99823.44;5006419;28;20040;-77
2021/12/05 05:11:29;;;;;;;29.95;12.93;;;;;;;3.65;100.00;99820.84;5058983;28;20043;-76
2021/12/05 05:13:59;;;;;;;27.15;12.70;;;;;;;3.65;100.00;99820.84;5035708;28;20044;-77
2021/12/05 05:16:28;;;;;;;30.75;13.27;;;;;;;3.65;100.00;99822.59;5076698;28;20040;-78
2021/12/05 05:18:59;;;;;;;20.95;13.20;;;;;;;3.65;100.00;99823.44;5039916;28;20281;-77
2021/12/05 05:24:53;;;;;;;27.48;13.65;;;;;;;3.66;100.00;99834.75;5029287;28;20401;-77
2021/12/05 05:27:43;;;;;;;27.42;13.10;;;;;;;3.67;100.00;99836.50;5075512;28;20040;-77
2021/12/05 05:52:00;;;;;;;26.40;14.85;;;;;;;3.66;100.00;99855.59;5043159;28;20636;-76
2021/12/05 05:54:30;;;;;;;29.80;15.68;;;;;;;3.66;100.00;99863.41;5009977;28;20056;-78
2021/12/05 05:57:09;;;;;;;38.10;17.48;;;;;;;3.67;100.00;99865.16;5016430;28;20052;-77
2021/12/05 05:59:42;;;;;;;28.02;15.88;;;;;;;3.66;100.00;99866.88;5034109;28;20059;-78
2021/12/05 06:04:39;;;;;;;37.22;17.92;;;;;;;3.64;100.00;99876.41;5067042;28;20049;-78
2021/12/05 06:07:08;;;;;;;30.08;16.13;;;;;;;3.64;100.00;99876.41;5046723;28;20037;-77
2021/12/05 06:09:37;;;;;;;33.95;16.17;;;;;;;3.63;100.00;99874.66;5044131;28;20392;-77
2021/12/05 06:12:06;;;;;;;36.17;17.65;;;;;;;3.63;100.00;99879.88;5014554;28;20485;-77
2021/12/05 06:14:35;;;;;;;29.67;15.68;;;;;;;3.63;100.00;99884.19;5028612;28;20048;-76
2021/12/05 06:17:03;;;;;;;33.85;15.82;;;;;;;3.63;100.00;99889.41;5030257;28;20041;-78
2021/12/05 06:19:32;;;;;;;31.20;15.77;;;;;;;3.63;100.00;99895.50;5054075;28;20041;-77
2021/12/05 06:22:00;;;;;;;31.75;16.25;;;;;;;3.64;100.00;99896.38;5031084;28;20682;-77
2021/12/05 06:24:29;;;;;;;27.90;15.60;;;;;;;3.63;100.00;99899.81;5036895;28;20397;-76
2021/12/05 06:27:01;;;;;;;34.65;17.08;;;;;;;3.63;100.00;99899.81;5013248;28;20185;-76
2021/12/05 06:29:36;;;;;;;35.30;16.85;;;;;;;3.63;100.00;99905.03;5053689;28;20044;-77
2021/12/05 06:37:47;;;;;;;37.13;15.55;;;;;;;3.61;100.00;99919.75;5061354;28;20057;-77
2021/12/05 06:40:33;;;;;;;32.33;14.70;;;;;;;3.59;100.00;99924.97;5029069;28;20048;-77
2021/12/05 06:43:16;;;;;;;32.63;15.20;;;;;;;3.60;100.00;99925.84;5004876;28;20036;-77
2021/12/05 06:46:03;;;;;;;33.63;14.00;;;;;;;3.60;100.00;99928.44;5051829;28;20327;-77
2021/12/05 06:48:32;;;;;;;31.05;14.15;;;;;;;3.60;100.00;99928.44;5048200;28;20120;-78
2021/12/05 06:51:01;;;;;;;37.15;14.77;;;;;;;3.60;100.00;99937.13;5021452;28;20551;-77
2021/12/05 06:53:30;;;;;;;27.25;13.52;;;;;;;3.61;100.00;99943.22;5034570;28;20056;-77
2021/12/05 06:55:58;;;;;;;31.38;17.10;;;;;;;3.59;100.00;99948.41;5047589;28;20043;-77
2021/12/05 06:58:27;;;;;;;34.88;13.60;;;;;;;3.58;100.00;99953.59;5024241;28;20048;-77
2021/12/05 07:00:56;;;;;;;26.10;13.20;;;;;;;3.57;100.00;99954.44;5050859;28;20161;-77
2021/12/05 07:03:25;;;;;;;24.95;12.85;;;;;;;3.56;100.00;99965.72;5059437;28;20053;-77
2021/12/05 07:06:04;;;;;;;31.92;12.63;;;;;;;3.56;100.00;99961.38;5033264;28;20049;-77
2021/12/05 07:08:36;;;;;;;28.42;12.57;;;;;;;3.54;100.00;99964.81;5032373;28;20056;-77
2021/12/05 07:16:50;;;;;;;26.67;11.63;;;;;;;3.50;100.00;99988.19;5046945;28;20502;-77
2021/12/05 07:21:56;;;;;;;26.65;11.75;;;;;;;3.48;100.00;99991.63;5049032;28;20103;-78
2021/12/05 07:44:01;;;;;;;28.15;10.63;;;;;;;3.31;100.00;100026.03;5008491;28;20053;-77
2021/12/05 07:46:30;;;;;;;20.60;9.07;;;;;;;3.31;100.00;100025.19;5035117;28;20037;-77
2021/12/05 07:48:59;;;;;;;26.23;10.35;;;;;;;3.30;100.00;100026.00;5039220;28;20277;-77
2021/12/05 07:51:30;;;;;;;26.55;9.63;;;;;;;3.31;100.00;100033.00;5034065;28;20389;-77
2021/12/05 07:54:16;;;;;;;20.52;10.10;;;;;;;3.30;100.00;100031.22;5026614;28;20048;-77
2021/12/05 07:56:52;;;;;;;24.80;10.40;;;;;;;3.30;100.00;100049.44;5033699;28;20618;-77
2021/12/05 08:00:28;;;;;;;32.65;10.88;;;;;;;3.30;100.00;100052.06;5016596;28;20056;-77
2021/12/05 08:16:26;;;;;;;23.50;10.00;;;;;;;3.29;100.00;100081.56;5012671;28;20411;-77
2021/12/05 08:18:55;;;;;;;29.30;10.18;;;;;;;3.28;100.00;100085.00;5043475;28;20083;-77
2021/12/05 08:21:24;;;;;;;23.45;10.43;;;;;;;3.26;100.00;100089.28;5051045;28;20528;-77
2021/12/05 08:23:53;;;;;;;25.33;9.73;;;;;;;3.25;100.00;100092.72;5043483;28;20170;-77
2021/12/05 08:26:30;;;;;;;25.88;10.25;;;;;;;3.25;100.00;100090.13;5054208;28;20036;-77
2021/12/05 08:29:16;;;;;;;23.30;10.18;;;;;;;3.23;100.00;100100.53;5062903;28;20485;-77
2021/12/05 10:07:40;;;;;;;31.15;13.18;;;;;;;3.37;100.00;100287.47;5054674;28;20052;-77
2021/12/05 10:10:35;;;;;;;28.45;13.63;;;;;;;3.36;100.00;100286.56;5049138;28;20159;-77
2021/12/05 10:13:13;;;;;;;25.33;13.30;;;;;;;3.37;100.00;100296.16;5045695;28;20048;-77
2021/12/05 10:35:36;;;;;;;33.22;17.58;;;;;;;3.54;100.00;100327.81;5014732;28;20032;-75
2021/12/05 10:38:12;;;;;;;36.90;16.08;;;;;;;3.58;100.00;100334.84;5065958;28;20040;-78
2021/12/05 10:40:53;;;;;;;27.23;16.25;;;;;;;3.63;100.00;100334.94;5030512;28;20044;-77
2021/12/05 10:43:26;;;;;;;33.88;16.00;;;;;;;3.64;100.00;100328.88;5066374;28;20128;-78
2021/12/05 10:46:08;;;;;;;24.38;15.15;;;;;;;3.67;100.00;100339.41;5032809;28;20076;-77
2021/12/05 10:48:47;;;;;;;29.27;15.25;;;;;;;3.70;100.00;100339.44;5036401;28;20047;-80
2021/12/05 10:51:27;;;;;;;27.57;14.23;;;;;;;3.73;100.00;100338.66;5012761;28;20051;-81
2021/12/05 10:54:08;;;;;;;28.63;14.85;;;;;;;3.74;100.00;100346.47;5055880;28;20044;-81
2021/12/05 10:56:43;;;;;;;32.53;14.27;;;;;;;3.75;100.00;100350.00;5042033;28;20543;-80
2021/12/05 10:59:19;;;;;;;32.40;14.85;;;;;;;3.77;100.00;100354.38;5055809;28;20583;-80
2021/12/05 11:02:09;;;;;;;26.33;14.65;;;;;;;3.82;100.00;100355.38;5046850;28;20531;-79
2021/12/05 11:04:46;;;;;;;26.58;13.88;;;;;;;3.86;100.00;100351.13;5033306;28;20099;-81
2021/12/05 11:07:21;;;;;;;23.33;13.30;;;;;;;3.86;100.00;100356.31;4982968;28;20270;-79
2021/12/05 11:09:57;;;;;;;28.90;14.40;;;;;;;3.93;100.00;100360.81;5041578;28;20048;-80
2021/12/05 11:12:31;;;;;;;23.33;13.95;;;;;;;3.98;100.00;100360.94;5033470;28;20048;-81
2021/12/05 11:15:11;;;;;;;25.02;14.60;;;;;;;4.05;100.00;100368.03;5046783;28;20043;-80
2021/12/05 11:17:46;;;;;;;25.63;14.23;;;;;;;4.12;100.00;100372.56;5054546;28;20469;-80
2021/12/05 11:20:29;;;;;;;25.95;12.90;;;;;;;4.18;100.00;100375.28;5051419;28;20241;-80
2021/12/05 11:23:00;;;;;;;26.00;13.13;;;;;;;4.24;100.00;100371.94;5006753;28;20057;-79
2021/12/05 11:25:31;;;;;;;24.45;13.30;;;;;;;4.29;100.00;100379.00;5040067;28;20060;-79
2021/12/05 11:28:04;;;;;;;28.73;13.18;;;;;;;4.33;100.00;100384.25;5017770;28;20060;-79
2021/12/05 11:30:34;;;;;;;26.30;13.73;;;;;;;4.33;100.00;100386.88;5053371;28;20036;-78
2021/12/05 11:33:16;;;;;;;28.10;13.43;;;;;;;4.38;100.00;100390.47;5034290;28;20059;-82
2021/12/05 11:36:09;;;;;;;24.95;14.90;;;;;;;4.41;100.00;100394.03;5047454;28;20564;-79
2021/12/05 11:38:38;;;;;;;32.88;15.05;;;;;;;4.46;100.00;100397.63;5011545;28;20036;-79
2021/12/05 11:41:10;;;;;;;30.05;16.33;;;;;;;4.50;100.00;100393.34;5041027;28;20044;-79
2021/12/05 11:43:44;;;;;;;26.48;14.77;;;;;;;4.52;100.00;100390.75;5049771;28;20040;-79
2021/12/05 11:46:29;;;;;;;27.88;14.85;;;;;;;4.57;100.00;100395.19;5015440;28;20048;-79
2021/12/05 11:49:08;;;;;;;35.45;17.00;;;;;;;4.62;100.00;100395.31;5049590;28;20544;-81
2021/12/05 11:51:44;;;;;;;23.90;13.63;;;;;;;4.65;100.00;100392.75;5064894;28;20048;-78
2021/12/05 11:54:15;;;;;;;24.92;13.93;;;;;;;4.69;100.00;100405.03;4990967;28;20513;-79
2021/12/05 11:57:05;;;;;;;21.80;13.48;;;;;;;4.74;100.00;100402.50;5026263;28;20051;-78
2021/12/05 11:59:54;;;;;;;14.90;10.43;;;;;;;4.78;100.00;100410.44;5048259;28;20048;-79
2021/12/05 12:02:25;;;;;;;17.30;11.52;;;;;;;4.82;100.00;100411.34;5032994;28;20731;-79
2021/12/05 12:05:17;;;;;;;23.95;12.93;;;;;;;4.85;100.00;100416.66;5037564;28;20049;-79
2021/12/05 12:07:50;;;;;;;23.10;12.60;;;;;;;4.87;100.00;100415.81;5000904;28;20052;-79
2021/12/05 12:10:34;;;;;;;21.75;12.70;;;;;;;4.87;100.00;100417.56;5038085;28;20055;-79
2021/12/05 12:13:11;;;;;;;33.08;17.88;;;;;;;4.86;100.00;100421.91;5028215;28;20075;-82
2021/12/05 12:15:44;;;;;;;23.88;13.70;;;;;;;4.87;100.00;100428.00;5024304;28;20053;-82
2021/12/05 12:18:26;;;;;;;18.77;12.30;;;;;;;4.85;100.00;100432.31;5042688;28;20037;-79
2021/12/05 12:21:06;;;;;;;23.92;14.82;;;;;;;4.85;100.00;100438.41;5047066;28;20052;-81
2021/12/05 12:23:39;;;;;;;27.20;13.18;;;;;;;4.85;100.00;100438.41;5010857;28;20041;-80
2021/12/05 12:26:10;;;;;;;24.98;14.68;;;;;;;4.85;100.00;100445.38;5036531;28;20055;-79
2021/12/05 12:28:39;;;;;;;28.70;13.90;;;;;;;4.87;100.00;100448.88;5040505;28;20127;-80
2021/12/05 12:31:17;;;;;;;19.08;11.98;;;;;;;4.86;100.00;100444.53;5041293;28;20063;-79
2021/12/05 12:33:53;;;;;;;22.08;12.68;;;;;;;4.84;100.00;100449.72;5051503;28;20158;-79
2021/12/05 12:36:40;;;;;;;21.10;11.85;;;;;;;4.84;100.00;100447.09;5044472;28;20444;-79
2021/12/05 12:39:18;;;;;;;22.20;12.65;;;;;;;4.83;100.00;100454.91;5014816;28;20717;-79
2021/12/05 12:42:09;;;;;;;19.10;10.57;;;;;;;4.83;100.00;100457.50;5047751;28;20254;-79
2021/12/05 12:44:55;;;;;;;17.55;12.02;;;;;;;4.80;100.00;100462.66;5045571;28;20045;-79
2021/12/05 12:47:45;;;;;;;22.08;12.20;;;;;;;4.74;100.00;100466.03;5053593;28;20041;-79
2021/12/05 12:50:35;;;;;;;17.17;11.18;;;;;;;4.76;100.00;100471.28;5051814;28;20043;-81
2021/12/05 12:53:29;;;;;;;17.83;9.90;;;;;;;4.75;100.00;100473.03;5054387;28;20036;-80
2021/12/05 12:56:04;;;;;;;25.67;11.60;;;;;;;4.76;100.00;100473.88;4992056;28;20036;-80
2021/12/05 12:58:36;;;;;;;22.10;12.57;;;;;;;4.74;100.00;100466.03;5042196;28;20494;-81
2021/12/05 13:01:17;;;;;;;19.45;11.13;;;;;;;4.73;100.00;100469.50;5046977;28;20048;-79
2021/12/05 13:04:32;;;;;;;18.13;10.90;;;;;;;4.75;100.00;100469.53;5038605;28;20291;-79
2021/12/05 13:10:08;;;;;;;23.25;11.25;;;;;;;4.71;100.00;100478.13;5012570;28;20040;-79
2021/12/05 13:12:48;;;;;;;18.45;10.40;;;;;;;4.66;100.00;100476.31;5045720;28;20037;-80
2021/12/05 13:15:28;;;;;;;22.35;11.38;;;;;;;4.63;100.00;100484.09;5024218;28;20045;-79
2021/12/05 13:18:09;;;;;;;19.00;10.57;;;;;;;4.60;100.00;100486.63;5060408;28;20253;-79
2021/12/05 13:20:40;;;;;;;21.02;11.90;;;;;;;4.59;100.00;100497.88;5059850;28;20053;-80
2021/12/05 13:23:21;;;;;;;25.35;11.73;;;;;;;4.58;100.00;100498.75;5036147;28;20623;-79
2021/12/05 13:25:55;;;;;;;13.85;8.85;;;;;;;4.59;100.00;100512.69;4998032;28;20413;-78
2021/12/05 13:28:45;;;;;;;17.58;10.27;;;;;;;4.57;100.00;100516.97;5047779;28;20044;-78
2021/12/05 13:31:29;;;;;;;19.90;11.50;;;;;;;4.56;100.00;100523.06;5028411;28;20453;-79
2021/12/05 13:34:16;;;;;;;19.20;10.93;;;;;;;4.49;100.00;100528.13;5044744;28;20237;-80
2021/12/05 13:36:50;;;;;;;18.75;10.70;;;;;;;4.46;100.00;100533.28;5033806;28;20067;-79
2021/12/05 13:39:48;;;;;;;19.27;11.25;;;;;;;4.45;100.00;100541.09;5063958;28;20478;-78
2021/12/05 13:42:22;;;;;;;18.50;10.43;;;;;;;4.45;100.00;100534.13;5004688;28;20049;-78
2021/12/05 13:45:03;;;;;;;19.25;10.63;;;;;;;4.45;100.00;100544.56;5050165;28;20095;-79
2021/12/05 13:47:43;;;;;;;24.05;11.93;;;;;;;4.42;100.00;100544.50;5031308;28;20052;-79
2021/12/05 13:50:16;;;;;;;19.02;11.40;;;;;;;4.40;100.00;100550.53;5060855;28;20525;-79
2021/12/05 13:53:01;;;;;;;21.55;11.52;;;;;;;4.37;100.00;100553.06;5036471;28;20048;-80
2021/12/05 13:55:41;;;;;;;22.52;11.43;;;;;;;4.34;100.00;100556.47;5048731;28;20083;-79
2021/12/05 13:58:30;;;;;;;24.08;12.13;;;;;;;4.33;100.00;100562.56;4998684;28;20573;-80
2021/12/05 14:01:07;;;;;;;19.33;11.27;;;;;;;4.30;100.00;100562.47;5031083;28;20041;-80
2021/12/05 14:03:57;;;;;;;18.90;11.50;;;;;;;4.31;100.00;100577.28;5025248;28;20076;-79
2021/12/05 14:06:32;;;;;;;18.83;11.00;;;;;;;4.31;100.00;100574.69;5048745;28;20048;-79
2021/12/05 14:09:03;;;;;;;23.60;10.88;;;;;;;4.32;100.00;100580.78;5047434;28;20056;-79
2021/12/05 14:11:33;;;;;;;24.42;12.00;;;;;;;4.32;100.00;100586.00;5062393;28;20044;-80
2021/12/05 14:14:05;;;;;;;19.92;12.30;;;;;;;4.32;100.00;100591.22;5003682;28;20052;-79
2021/12/05 14:16:38;;;;;;;23.13;11.77;;;;;;;4.32;100.00;100599.91;5041075;28;20057;-79
2021/12/05 14:19:11;;;;;;;19.58;11.93;;;;;;;4.30;100.00;100605.09;5036491;28;20265;-79
2021/12/05 14:21:52;;;;;;;23.73;12.30;;;;;;;4.30;100.00;100610.28;5031735;28;20065;-80
2021/12/05 14:24:24;;;;;;;27.98;13.38;;;;;;;4.32;100.00;100622.50;5043512;28;20055;-78
2021/12/05 14:26:57;;;;;;;21.38;13.55;;;;;;;4.29;100.00;100625.91;5039451;28;20048;-78
2021/12/05 14:29:28;;;;;;;26.80;14.27;;;;;;;4.28;100.00;100632.84;5002810;28;20068;-78
2021/12/05 14:32:08;;;;;;;28.60;14.98;;;;;;;4.29;100.00;100645.06;5043844;28;20048;-80
2021/12/05 14:34:38;;;;;;;24.02;14.70;;;;;;;4.28;100.00;100651.13;5034393;28;20045;-79
2021/12/05 14:37:14;;;;;;;25.92;14.63;;;;;;;4.26;100.00;100654.53;5037297;28;20052;-80
2021/12/05 14:40:05;;;;;;;24.52;14.50;;;;;;;4.25;100.00;100664.09;5022803;28;20501;-82
2021/12/05 14:42:40;;;;;;;21.90;13.85;;;;;;;4.26;100.00;100663.25;5062072;28;20056;-83
2021/12/05 14:45:17;;;;;;;25.80;14.75;;;;;;;4.26;100.00;100667.59;5010467;28;22582;-78
2021/12/05 14:47:46;;;;;;;23.38;15.35;;;;;;;4.24;100.00;100670.16;4993092;28;20056;-78
2021/12/05 14:50:17;;;;;;;22.65;14.50;;;;;;;4.22;100.00;100673.56;5035808;28;20047;-77
2021/12/05 14:52:50;;;;;;;43.72;16.50;;;;;;;4.21;100.00;100683.09;5049126;28;20032;-79
2021/12/05 14:55:21;;;;;;;22.25;14.48;;;;;;;4.21;100.00;100687.44;5031232;28;20052;-78
2021/12/05 14:57:52;;;;;;;21.00;15.43;;;;;;;4.18;100.00;100696.06;5026777;28;20375;-77
2021/12/05 15:00:25;;;;;;;24.83;16.60;;;;;;;4.16;100.00;100699.47;5011770;28;20405;-78
2021/12/05 15:03:07;;;;;;;25.10;16.08;;;;;;;4.12;100.00;100708.97;5040350;28;21037;-80
2021/12/05 15:05:38;;;;;;;26.00;15.75;;;;;;;4.09;100.00;100716.69;5035806;28;20052;-78
2021/12/05 15:08:10;;;;;;;22.25;15.20;;;;;;;4.04;100.00;100720.88;5034682;28;20165;-78
2021/12/05 15:10:41;;;;;;;23.08;15.90;;;;;;;4.02;100.00;100738.22;5017486;28;20373;-78
2021/12/05 15:13:11;;;;;;;21.52;14.57;;;;;;;3.98;100.00;100728.53;5070106;28;20060;-79
2021/12/05 15:15:40;;;;;;;24.63;15.57;;;;;;;3.93;100.00;100725.78;5016222;28;20045;-78
2021/12/05 15:18:23;;;;;;;24.45;15.02;;;;;;;3.93;100.00;100733.59;5045250;28;20036;-78
2021/12/05 15:20:51;;;;;;;23.88;14.63;;;;;;;3.90;100.00;100741.38;5043258;28;20049;-78
2021/12/05 15:23:21;;;;;;;23.10;15.90;;;;;;;3.88;100.00;100735.22;5048890;28;20048;-78
2021/12/05 15:25:50;;;;;;;24.67;16.58;;;;;;;3.87;100.00;100738.66;5025915;28;20041;-78
2021/12/05 15:28:19;;;;;;;30.10;18.50;;;;;;;3.84;100.00;100742.06;5033686;28;20508;-78
2021/12/05 15:30:49;;;;;;;23.80;17.02;;;;;;;3.82;100.00;100743.75;5040879;28;20051;-78
2021/12/05 15:33:21;;;;;;;30.38;18.10;;;;;;;3.83;100.00;100744.63;5000477;28;20047;-79
2021/12/05 15:35:50;;;;;;;26.90;17.17;;;;;;;3.82;100.00;100751.56;5031762;28;20067;-78
2021/12/05 15:38:24;;;;;;;28.80;16.27;;;;;;;3.80;100.00;100752.34;5028371;28;20047;-80
2021/12/05 15:41:01;;;;;;;26.55;16.02;;;;;;;3.80;100.00;100763.69;5056063;28;20055;-79
2021/12/05 15:43:35;;;;;;;26.25;16.98;;;;;;;3.78;100.00;100767.97;5039221;28;20045;-79
2021/12/05 15:46:07;;;;;;;27.40;18.20;;;;;;;3.77;100.00;100770.53;5039734;28;20044;-78
2021/12/05 15:48:37;;;;;;;24.90;17.05;;;;;;;3.77;100.00;100774.00;5025044;28;20170;-79
2021/12/05 15:51:11;;;;;;;40.42;19.65;;;;;;;3.76;100.00;100774.81;5019478;28;20048;-79
2021/12/05 15:53:41;;;;;;;24.45;15.80;;;;;;;3.74;100.00;100776.50;5048112;28;20269;-78
2021/12/05 15:56:13;;;;;;;27.92;17.80;;;;;;;3.73;100.00;100785.19;5037176;28;20049;-79
2021/12/05 15:59:00;;;;;;;24.63;15.63;;;;;;;3.72;100.00;100788.63;5057896;28;20049;-79
2021/12/05 16:01:30;;;;;;;26.50;16.92;;;;;;;3.69;100.00;100798.97;5040735;28;20052;-77
2021/12/05 16:04:05;;;;;;;24.02;16.35;;;;;;;3.67;100.00;100798.03;5018815;28;20044;-79
2021/12/05 16:06:40;;;;;;;22.23;16.45;;;;;;;3.67;100.00;100806.72;5019505;28;20045;-78
2021/12/05 16:09:12;;;;;;;33.40;18.48;;;;;;;3.68;100.00;100821.50;5055329;28;20048;-78
2021/12/05 16:11:41;;;;;;;23.67;16.60;;;;;;;3.66;100.00;100820.59;5050875;28;20048;-77
2021/12/05 16:14:09;;;;;;;24.88;17.75;;;;;;;3.67;100.00;100824.09;5040641;28;20029;-78
2021/12/05 16:16:38;;;;;;;28.60;19.27;;;;;;;3.67;100.00;100830.19;5011177;28;20272;-77
2021/12/05 16:19:09;;;;;;;27.70;16.83;;;;;;;3.65;100.00;100825.78;5001137;28;20045;-77
2021/12/05 16:21:39;;;;;;;26.02;17.80;;;;;;;3.63;100.00;100837.84;5032592;28;20052;-77
2021/12/05 16:24:17;;;;;;;29.38;17.23;;;;;;;3.61;100.00;100843.03;5057512;28;20045;-77
2021/12/05 16:26:48;;;;;;;28.42;16.17;;;;;;;3.57;100.00;100848.97;5045989;28;20049;-76
2021/12/05 16:29:24;;;;;;;24.05;16.40;;;;;;;3.55;100.00;100861.06;5046399;28;20047;-77
2021/12/05 16:31:57;;;;;;;20.50;14.38;;;;;;;3.51;100.00;100865.28;5054841;28;20420;-77
2021/12/05 16:34:32;;;;;;;26.08;16.73;;;;;;;3.46;100.00;100860.75;5006797;28;20257;-77
2021/12/05 16:37:04;;;;;;;20.00;14.48;;;;;;;3.44;100.00;100870.25;5036369;28;20056;-77
2021/12/05 16:39:42;;;;;;;23.02;14.95;;;;;;;3.42;100.00;100869.31;5055829;28;20045;-77
2021/12/05 16:42:21;;;;;;;23.10;15.88;;;;;;;3.38;100.00;100880.47;5031970;28;20037;-77
2021/12/05 16:44:55;;;;;;;22.23;15.23;;;;;;;3.37;100.00;100877.00;5049780;28;20067;-77
2021/12/05 16:47:29;;;;;;;24.25;16.35;;;;;;;3.35;100.00;100888.22;5026861;28;20040;-77
2021/12/05 16:50:00;;;;;;;27.00;18.05;;;;;;;3.32;100.00;100892.47;5004741;28;20040;-77
2021/12/05 16:52:36;;;;;;;22.15;15.25;;;;;;;3.29;100.00;100871.53;5028604;28;20277;-77
2021/12/05 16:55:27;;;;;;;24.55;17.30;;;;;;;3.28;100.00;100887.09;5058885;28;20037;-77
2021/12/05 16:58:09;;;;;;;22.73;16.38;;;;;;;3.27;100.00;100890.53;5040979;28;20048;-78
2021/12/05 17:00:40;;;;;;;31.33;22.45;;;;;;;3.25;100.00;100900.91;5048226;28;20142;-78
2021/12/05 17:03:09;;;;;;;23.85;16.38;;;;;;;3.21;100.00;100909.44;5034562;28;20063;-78
2021/12/05 17:05:45;;;;;;;20.80;16.15;;;;;;;3.17;100.00;100914.50;5006758;28;20048;-78
2021/12/05 17:08:24;;;;;;;21.65;14.95;;;;;;;3.16;100.00;100913.63;5047053;28;20048;-77